sensor_id;sensor_type;location;lat;lon;timestamp;temperature;humidity
19483;DHT22;9882;51.166;6.992;2022-11-20T00:01:37;5.60;99.90
19483;DHT22;9882;51.166;6.992;2022-11-20T00:04:06;5.60;99.90
19483;DHT22;9882;51.166;6.992;2022-11-20T00:06:34;5.50;99.90
19483;DHT22;9882;51.166;6.992;2022-11-20T00:09:03;5.60;99.90
19483;DHT22;9882;51.166;6.992;2022-11-20T00:11:32;5.60;99.90
19483;DHT22;9882;51.166;6.992;2022-11-20T00:14:01;5.60;99.90
19483;DHT22;9882;51.166;6.992;2022-11-20T00:16:32;5.60;99.90
19483;DHT22;9882;51.166;6.992;2022-11-20T00:19:01;5.60;99.90
19483;DHT22;9882;51.166;6.992;2022-11-20T00:21:39;5.60;99.90
19483;DHT22;9882;51.166;6.992;2022-11-20T00:24:10;5.60;99.90
19483;DHT22;9882;51.166;6.992;2022-11-20T00:26:43;5.60;99.90
19483;DHT22;9882;51.166;6.992;2022-11-20T00:29:13;5.50;99.90
19483;DHT22;9882;51.166;6.992;2022-11-20T00:31:44;5.60;99.90
19483;DHT22;9882;51.166;6.992;2022-11-20T00:34:22;5.60;99.90
19483;DHT22;9882;51.166;6.992;2022-11-20T00:40:17;5.40;99.90
19483;DHT22;9882;51.166;6.992;2022-11-20T00:42:54;5.50;99.90
19483;DHT22;9882;51.166;6.992;2022-11-20T00:45:29;5.50;99.90
19483;DHT22;9882;51.166;6.992;2022-11-20T00:48:05;5.50;99.90
19483;DHT22;9882;51.166;6.992;2022-11-20T00:50:41;5.40;99.90
19483;DHT22;9882;51.166;6.992;2022-11-20T00:53:22;5.50;99.90
19483;DHT22;9882;51.166;6.992;2022-11-20T00:56:20;5.50;99.90
19483;DHT22;9882;51.166;6.992;2022-11-20T00:58:53;5.50;99.90
19483;DHT22;9882;51.166;6.992;2022-11-20T01:01:30;5.60;99.90
19483;DHT22;9882;51.166;6.992;2022-11-20T01:04:00;5.60;99.90
19483;DHT22;9882;51.166;6.992;2022-11-20T01:06:30;5.50;99.90
19483;DHT22;9882;51.166;6.992;2022-11-20T01:09:03;5.50;99.90
19483;DHT22;9882;51.166;6.992;2022-11-20T01:11:37;5.50;99.90
19483;DHT22;9882;51.166;6.992;2022-11-20T01:14:07;5.50;99.90
19483;DHT22;9882;51.166;6.992;2022-11-20T01:16:41;5.60;99.90
19483;DHT22;9882;51.166;6.992;2022-11-20T01:19:13;5.50;99.90
19483;DHT22;9882;51.166;6.992;2022-11-20T01:21:51;5.50;99.90
19483;DHT22;9882;51.166;6.992;2022-11-20T01:24:24;5.60;99.90
19483;DHT22;9882;51.166;6.992;2022-11-20T01:27:02;5.60;99.90
19483;DHT22;9882;51.166;6.992;2022-11-20T01:29:35;5.50;99.90
19483;DHT22;9882;51.166;6.992;2022-11-20T01:32:04;5.50;99.90
19483;DHT22;9882;51.166;6.992;2022-11-20T01:34:44;5.60;99.90
19483;DHT22;9882;51.166;6.992;2022-11-20T01:37:13;5.60;99.90
19483;DHT22;9882;51.166;6.992;2022-11-20T01:39:41;5.50;99.90
19483;DHT22;9882;51.166;6.992;2022-11-20T01:42:19;5.50;99.90
19483;DHT22;9882;51.166;6.992;2022-11-20T01:48:10;5.50;99.90
19483;DHT22;9882;51.166;6.992;2022-11-20T01:50:41;5.60;99.90
19483;DHT22;9882;51.166;6.992;2022-11-20T01:53:12;5.50;99.90
19483;DHT22;9882;51.166;6.992;2022-11-20T01:55:46;5.50;99.90
19483;DHT22;9882;51.166;6.992;2022-11-20T01:58:17;5.50;99.90
19483;DHT22;9882;51.166;6.992;2022-11-20T02:00:46;5.50;99.90
19483;DHT22;9882;51.166;6.992;2022-11-20T02:03:16;5.50;99.90
19483;DHT22;9882;51.166;6.992;2022-11-20T02:05:51;5.40;99.90
19483;DHT22;9882;51.166;6.992;2022-11-20T02:08:20;5.40;99.90
19483;DHT22;9882;51.166;6.992;2022-11-20T02:10:49;5.40;99.90
19483;DHT22;9882;51.166;6.992;2022-11-20T02:13:17;5.30;99.90
19483;DHT22;9882;51.166;6.992;2022-11-20T02:16:04;5.30;99.90
19483;DHT22;9882;51.166;6.992;2022-11-20T02:18:33;5.40;99.90
19483;DHT22;9882;51.166;6.992;2022-11-20T02:21:07;5.40;99.90
19483;DHT22;9882;51.166;6.992;2022-11-20T02:23:39;5.40;99.90
19483;DHT22;9882;51.166;6.992;2022-11-20T02:26:11;5.30;99.90
19483;DHT22;9882;51.166;6.992;2022-11-20T02:28:41;5.30;99.90
19483;DHT22;9882;51.166;6.992;2022-11-20T02:31:10;5.30;99.90
19483;DHT22;9882;51.166;6.992;2022-11-20T02:33:38;5.30;99.90
19483;DHT22;9882;51.166;6.992;2022-11-20T02:36:09;5.30;99.90
19483;DHT22;9882;51.166;6.992;2022-11-20T02:38:39;5.30;99.90
19483;DHT22;9882;51.166;6.992;2022-11-20T02:41:09;5.30;99.90
19483;DHT22;9882;51.166;6.992;2022-11-20T02:43:38;5.20;99.90
19483;DHT22;9882;51.166;6.992;2022-11-20T02:46:07;5.30;99.90
19483;DHT22;9882;51.166;6.992;2022-11-20T02:48:35;5.20;99.90
19483;DHT22;9882;51.166;6.992;2022-11-20T02:51:04;5.20;99.90
19483;DHT22;9882;51.166;6.992;2022-11-20T02:53:33;5.20;99.90
19483;DHT22;9882;51.166;6.992;2022-11-20T02:56:01;5.20;99.90
19483;DHT22;9882;51.166;6.992;2022-11-20T02:58:31;5.20;99.90
19483;DHT22;9882;51.166;6.992;2022-11-20T03:00:59;5.20;99.90
19483;DHT22;9882;51.166;6.992;2022-11-20T03:03:28;5.20;99.90
19483;DHT22;9882;51.166;6.992;2022-11-20T03:05:58;5.20;99.90
19483;DHT22;9882;51.166;6.992;2022-11-20T03:08:27;5.30;99.90
19483;DHT22;9882;51.166;6.992;2022-11-20T03:10:55;5.20;99.90
19483;DHT22;9882;51.166;6.992;2022-11-20T03:13:25;5.20;99.90
19483;DHT22;9882;51.166;6.992;2022-11-20T03:15:54;5.20;99.90
19483;DHT22;9882;51.166;6.992;2022-11-20T03:18:23;5.20;99.90
19483;DHT22;9882;51.166;6.992;2022-11-20T03:20:57;5.20;99.90
19483;DHT22;9882;51.166;6.992;2022-11-20T03:23:25;5.30;99.90
19483;DHT22;9882;51.166;6.992;2022-11-20T03:26:06;5.20;99.90
19483;DHT22;9882;51.166;6.992;2022-11-20T03:28:34;5.30;99.90
19483;DHT22;9882;51.166;6.992;2022-11-20T03:31:09;5.20;99.90
19483;DHT22;9882;51.166;6.992;2022-11-20T03:33:39;5.20;99.90
19483;DHT22;9882;51.166;6.992;2022-11-20T03:36:10;5.20;99.90
19483;DHT22;9882;51.166;6.992;2022-11-20T03:38:40;4.90;99.90
19483;DHT22;9882;51.166;6.992;2022-11-20T03:41:10;4.80;99.90
19483;DHT22;9882;51.166;6.992;2022-11-20T03:43:39;5.00;99.90
19483;DHT22;9882;51.166;6.992;2022-11-20T03:46:09;5.20;99.90
19483;DHT22;9882;51.166;6.992;2022-11-20T03:48:37;5.20;99.90
19483;DHT22;9882;51.166;6.992;2022-11-20T03:51:08;5.30;99.90
19483;DHT22;9882;51.166;6.992;2022-11-20T03:53:36;5.40;99.90
19483;DHT22;9882;51.166;6.992;2022-11-20T03:56:06;5.40;99.90
19483;DHT22;9882;51.166;6.992;2022-11-20T03:58:35;5.40;99.90
19483;DHT22;9882;51.166;6.992;2022-11-20T04:01:05;5.40;99.90
19483;DHT22;9882;51.166;6.992;2022-11-20T04:03:36;5.40;99.90
19483;DHT22;9882;51.166;6.992;2022-11-20T04:06:07;5.50;99.90
19483;DHT22;9882;51.166;6.992;2022-11-20T04:08:36;5.40;99.90
19483;DHT22;9882;51.166;6.992;2022-11-20T04:11:12;5.50;99.90
19483;DHT22;9882;51.166;6.992;2022-11-20T04:13:41;5.40;99.90
19483;DHT22;9882;51.166;6.992;2022-11-20T04:16:10;5.40;99.90
19483;DHT22;9882;51.166;6.992;2022-11-20T04:18:40;5.60;99.90
19483;DHT22;9882;51.166;6.992;2022-11-20T04:21:08;5.50;99.90
19483;DHT22;9882;51.166;6.992;2022-11-20T04:23:38;5.50;99.90
19483;DHT22;9882;51.166;6.992;2022-11-20T04:26:09;5.50;99.90
19483;DHT22;9882;51.166;6.992;2022-11-20T04:28:38;5.40;99.90
19483;DHT22;9882;51.166;6.992;2022-11-20T04:31:09;5.40;99.90
19483;DHT22;9882;51.166;6.992;2022-11-20T04:33:39;5.40;99.90
19483;DHT22;9882;51.166;6.992;2022-11-20T04:36:12;5.40;99.90
19483;DHT22;9882;51.166;6.992;2022-11-20T04:38:41;5.50;99.90
19483;DHT22;9882;51.166;6.992;2022-11-20T04:41:14;5.40;99.90
19483;DHT22;9882;51.166;6.992;2022-11-20T04:43:46;5.40;99.90
19483;DHT22;9882;51.166;6.992;2022-11-20T04:46:16;5.40;99.90
19483;DHT22;9882;51.166;6.992;2022-11-20T04:48:47;5.20;99.90
19483;DHT22;9882;51.166;6.992;2022-11-20T04:51:15;5.20;99.90
19483;DHT22;9882;51.166;6.992;2022-11-20T04:53:44;5.20;99.90
19483;DHT22;9882;51.166;6.992;2022-11-20T04:56:13;5.20;99.90
19483;DHT22;9882;51.166;6.992;2022-11-20T04:58:42;5.20;99.90
19483;DHT22;9882;51.166;6.992;2022-11-20T05:01:12;5.20;99.90
19483;DHT22;9882;51.166;6.992;2022-11-20T05:03:42;5.20;99.90
19483;DHT22;9882;51.166;6.992;2022-11-20T05:06:13;5.20;99.90
19483;DHT22;9882;51.166;6.992;2022-11-20T05:08:42;5.20;99.90
19483;DHT22;9882;51.166;6.992;2022-11-20T05:11:13;5.10;99.90
19483;DHT22;9882;51.166;6.992;2022-11-20T05:13:42;5.10;99.90
19483;DHT22;9882;51.166;6.992;2022-11-20T05:16:12;5.10;99.90
19483;DHT22;9882;51.166;6.992;2022-11-20T05:18:41;5.10;99.90
19483;DHT22;9882;51.166;6.992;2022-11-20T05:21:11;5.10;99.90
19483;DHT22;9882;51.166;6.992;2022-11-20T05:23:40;5.10;99.90
19483;DHT22;9882;51.166;6.992;2022-11-20T05:26:14;5.00;99.90
19483;DHT22;9882;51.166;6.992;2022-11-20T05:28:42;5.10;99.90
19483;DHT22;9882;51.166;6.992;2022-11-20T05:31:12;5.00;99.90
19483;DHT22;9882;51.166;6.992;2022-11-20T05:33:42;5.00;99.90
19483;DHT22;9882;51.166;6.992;2022-11-20T05:36:13;5.00;99.90
19483;DHT22;9882;51.166;6.992;2022-11-20T05:38:43;5.00;99.90
19483;DHT22;9882;51.166;6.992;2022-11-20T05:41:14;5.00;99.90
19483;DHT22;9882;51.166;6.992;2022-11-20T05:43:44;5.00;99.90
19483;DHT22;9882;51.166;6.992;2022-11-20T05:46:15;5.00;99.90
19483;DHT22;9882;51.166;6.992;2022-11-20T05:48:44;5.00;99.90
19483;DHT22;9882;51.166;6.992;2022-11-20T05:51:16;5.00;99.90
19483;DHT22;9882;51.166;6.992;2022-11-20T05:53:45;4.90;99.90
19483;DHT22;9882;51.166;6.992;2022-11-20T05:56:16;5.00;99.90
19483;DHT22;9882;51.166;6.992;2022-11-20T05:58:45;5.00;99.90
19483;DHT22;9882;51.166;6.992;2022-11-20T06:01:16;5.00;99.90
19483;DHT22;9882;51.166;6.992;2022-11-20T06:03:45;5.10;99.90
19483;DHT22;9882;51.166;6.992;2022-11-20T06:06:16;5.00;99.90
19483;DHT22;9882;51.166;6.992;2022-11-20T06:08:45;5.00;99.90
19483;DHT22;9882;51.166;6.992;2022-11-20T06:11:15;5.00;99.90
19483;DHT22;9882;51.166;6.992;2022-11-20T06:13:44;5.00;99.90
19483;DHT22;9882;51.166;6.992;2022-11-20T06:16:14;5.00;99.90
19483;DHT22;9882;51.166;6.992;2022-11-20T06:18:44;5.00;99.90
19483;DHT22;9882;51.166;6.992;2022-11-20T06:21:14;5.00;99.90
19483;DHT22;9882;51.166;6.992;2022-11-20T06:23:45;5.00;99.90
19483;DHT22;9882;51.166;6.992;2022-11-20T06:26:15;5.00;99.90
19483;DHT22;9882;51.166;6.992;2022-11-20T06:28:45;5.00;99.90
19483;DHT22;9882;51.166;6.992;2022-11-20T06:31:15;5.00;99.90
19483;DHT22;9882;51.166;6.992;2022-11-20T06:33:44;4.90;99.90
19483;DHT22;9882;51.166;6.992;2022-11-20T06:36:15;4.90;99.90
19483;DHT22;9882;51.166;6.992;2022-11-20T06:38:45;5.00;99.90
19483;DHT22;9882;51.166;6.992;2022-11-20T06:41:15;5.00;99.90
19483;DHT22;9882;51.166;6.992;2022-11-20T06:43:45;5.00;99.90
19483;DHT22;9882;51.166;6.992;2022-11-20T06:46:19;5.00;99.90
19483;DHT22;9882;51.166;6.992;2022-11-20T06:48:48;4.90;99.90
19483;DHT22;9882;51.166;6.992;2022-11-20T06:51:19;4.90;99.90
19483;DHT22;9882;51.166;6.992;2022-11-20T06:53:49;4.90;99.90
19483;DHT22;9882;51.166;6.992;2022-11-20T06:56:18;4.90;99.90
19483;DHT22;9882;51.166;6.992;2022-11-20T06:58:46;4.90;99.90
19483;DHT22;9882;51.166;6.992;2022-11-20T07:01:15;4.80;99.90
19483;DHT22;9882;51.166;6.992;2022-11-20T07:03:43;4.80;99.90
19483;DHT22;9882;51.166;6.992;2022-11-20T07:06:14;4.80;99.90
19483;DHT22;9882;51.166;6.992;2022-11-20T07:08:42;4.80;99.90
19483;DHT22;9882;51.166;6.992;2022-11-20T07:11:12;4.80;99.90
19483;DHT22;9882;51.166;6.992;2022-11-20T07:13:41;4.80;99.90
19483;DHT22;9882;51.166;6.992;2022-11-20T07:16:09;4.80;99.90
19483;DHT22;9882;51.166;6.992;2022-11-20T07:18:37;5.00;99.90
19483;DHT22;9882;51.166;6.992;2022-11-20T07:21:09;5.00;99.90
19483;DHT22;9882;51.166;6.992;2022-11-20T07:23:38;5.10;99.90
19483;DHT22;9882;51.166;6.992;2022-11-20T07:26:07;5.10;99.90
19483;DHT22;9882;51.166;6.992;2022-11-20T07:28:44;5.10;99.90
19483;DHT22;9882;51.166;6.992;2022-11-20T07:31:15;5.10;99.90
19483;DHT22;9882;51.166;6.992;2022-11-20T07:33:46;5.10;99.90
19483;DHT22;9882;51.166;6.992;2022-11-20T07:39:21;5.10;99.90
19483;DHT22;9882;51.166;6.992;2022-11-20T07:41:49;5.10;99.90
19483;DHT22;9882;51.166;6.992;2022-11-20T07:44:22;5.10;99.90
19483;DHT22;9882;51.166;6.992;2022-11-20T07:46:56;5.10;99.90
19483;DHT22;9882;51.166;6.992;2022-11-20T07:50:15;5.10;99.90
19483;DHT22;9882;51.166;6.992;2022-11-20T07:53:17;5.10;99.90
19483;DHT22;9882;51.166;6.992;2022-11-20T07:55:47;5.10;99.90
19483;DHT22;9882;51.166;6.992;2022-11-20T07:58:16;5.10;99.90
19483;DHT22;9882;51.166;6.992;2022-11-20T08:00:46;5.10;99.90
19483;DHT22;9882;51.166;6.992;2022-11-20T08:03:14;5.10;99.90
19483;DHT22;9882;51.166;6.992;2022-11-20T08:15:15;5.10;99.90
19483;DHT22;9882;51.166;6.992;2022-11-20T08:18:12;5.10;99.90
19483;DHT22;9882;51.166;6.992;2022-11-20T08:21:24;5.00;99.90
19483;DHT22;9882;51.166;6.992;2022-11-20T08:23:52;5.00;99.90
19483;DHT22;9882;51.166;6.992;2022-11-20T08:26:21;5.00;99.90
19483;DHT22;9882;51.166;6.992;2022-11-20T08:28:53;4.90;99.90
19483;DHT22;9882;51.166;6.992;2022-11-20T08:31:24;4.80;99.90
19483;DHT22;9882;51.166;6.992;2022-11-20T08:33:58;4.60;99.90
19483;DHT22;9882;51.166;6.992;2022-11-20T08:36:28;4.80;99.90
19483;DHT22;9882;51.166;6.992;2022-11-20T08:38:56;4.70;99.90
19483;DHT22;9882;51.166;6.992;2022-11-20T08:41:25;4.70;99.90
19483;DHT22;9882;51.166;6.992;2022-11-20T08:43:56;4.70;99.90
19483;DHT22;9882;51.166;6.992;2022-11-20T08:46:26;4.70;99.90
19483;DHT22;9882;51.166;6.992;2022-11-20T08:48:54;4.70;99.90
19483;DHT22;9882;51.166;6.992;2022-11-20T08:51:26;4.60;99.90
19483;DHT22;9882;51.166;6.992;2022-11-20T08:53:57;4.70;99.90
19483;DHT22;9882;51.166;6.992;2022-11-20T08:56:29;4.80;99.90
19483;DHT22;9882;51.166;6.992;2022-11-20T08:58:57;4.70;99.90
19483;DHT22;9882;51.166;6.992;2022-11-20T09:01:46;4.70;99.90
19483;DHT22;9882;51.166;6.992;2022-11-20T09:04:15;4.70;99.90
19483;DHT22;9882;51.166;6.992;2022-11-20T09:06:45;4.70;99.90
19483;DHT22;9882;51.166;6.992;2022-11-20T09:09:18;4.70;99.90
19483;DHT22;9882;51.166;6.992;2022-11-20T09:11:47;4.70;99.90
19483;DHT22;9882;51.166;6.992;2022-11-20T09:14:17;4.70;99.90
19483;DHT22;9882;51.166;6.992;2022-11-20T09:16:45;4.70;99.90
19483;DHT22;9882;51.166;6.992;2022-11-20T09:19:14;4.70;99.90
19483;DHT22;9882;51.166;6.992;2022-11-20T09:22:04;4.80;99.90
19483;DHT22;9882;51.166;6.992;2022-11-20T09:24:32;4.70;99.90
19483;DHT22;9882;51.166;6.992;2022-11-20T09:27:03;4.80;99.90
19483;DHT22;9882;51.166;6.992;2022-11-20T09:29:31;4.80;99.90
19483;DHT22;9882;51.166;6.992;2022-11-20T09:32:00;4.80;99.90
19483;DHT22;9882;51.166;6.992;2022-11-20T09:34:28;4.80;99.90
19483;DHT22;9882;51.166;6.992;2022-11-20T09:36:57;4.90;99.90
19483;DHT22;9882;51.166;6.992;2022-11-20T09:39:27;4.90;99.90
19483;DHT22;9882;51.166;6.992;2022-11-20T09:42:23;4.70;99.90
19483;DHT22;9882;51.166;6.992;2022-11-20T09:45:05;4.60;99.90
19483;DHT22;9882;51.166;6.992;2022-11-20T09:47:50;4.50;99.90
19483;DHT22;9882;51.166;6.992;2022-11-20T09:50:29;4.50;99.90
19483;DHT22;9882;51.166;6.992;2022-11-20T09:53:11;4.50;99.90
19483;DHT22;9882;51.166;6.992;2022-11-20T09:55:42;4.60;99.90
19483;DHT22;9882;51.166;6.992;2022-11-20T09:58:16;4.70;99.90
19483;DHT22;9882;51.166;6.992;2022-11-20T10:00:48;4.70;99.90
19483;DHT22;9882;51.166;6.992;2022-11-20T10:03:21;4.90;99.90
19483;DHT22;9882;51.166;6.992;2022-11-20T10:05:54;4.80;99.90
19483;DHT22;9882;51.166;6.992;2022-11-20T10:08:25;4.90;99.90
19483;DHT22;9882;51.166;6.992;2022-11-20T10:11:04;4.90;99.90
19483;DHT22;9882;51.166;6.992;2022-11-20T10:13:41;4.80;99.90
19483;DHT22;9882;51.166;6.992;2022-11-20T10:16:23;4.80;99.90
19483;DHT22;9882;51.166;6.992;2022-11-20T10:19:05;4.90;99.90
19483;DHT22;9882;51.166;6.992;2022-11-20T10:21:45;4.90;99.90
19483;DHT22;9882;51.166;6.992;2022-11-20T10:27:29;5.00;99.90
19483;DHT22;9882;51.166;6.992;2022-11-20T10:30:07;4.90;99.90
19483;DHT22;9882;51.166;6.992;2022-11-20T10:32:39;5.00;99.90
19483;DHT22;9882;51.166;6.992;2022-11-20T10:35:18;4.90;99.90
19483;DHT22;9882;51.166;6.992;2022-11-20T10:37:51;4.90;99.90
19483;DHT22;9882;51.166;6.992;2022-11-20T10:40:27;5.10;99.90
19483;DHT22;9882;51.166;6.992;2022-11-20T10:43:01;4.90;99.90
19483;DHT22;9882;51.166;6.992;2022-11-20T10:45:43;5.00;99.90
19483;DHT22;9882;51.166;6.992;2022-11-20T10:48:20;4.90;99.90
19483;DHT22;9882;51.166;6.992;2022-11-20T10:50:59;4.90;99.90
19483;DHT22;9882;51.166;6.992;2022-11-20T10:53:43;4.90;99.90
19483;DHT22;9882;51.166;6.992;2022-11-20T10:56:19;4.90;99.90
19483;DHT22;9882;51.166;6.992;2022-11-20T10:59:00;4.90;99.90
19483;DHT22;9882;51.166;6.992;2022-11-20T11:01:30;5.00;99.90
19483;DHT22;9882;51.166;6.992;2022-11-20T11:03:59;4.90;99.90
19483;DHT22;9882;51.166;6.992;2022-11-20T11:06:32;5.00;99.90
19483;DHT22;9882;51.166;6.992;2022-11-20T11:09:09;5.00;99.90
19483;DHT22;9882;51.166;6.992;2022-11-20T11:11:40;5.00;99.90
19483;DHT22;9882;51.166;6.992;2022-11-20T11:14:11;5.10;99.90
19483;DHT22;9882;51.166;6.992;2022-11-20T11:16:49;5.00;99.90
19483;DHT22;9882;51.166;6.992;2022-11-20T11:19:19;5.10;99.90
19483;DHT22;9882;51.166;6.992;2022-11-20T11:21:50;5.20;99.90
19483;DHT22;9882;51.166;6.992;2022-11-20T11:24:23;5.30;99.90
19483;DHT22;9882;51.166;6.992;2022-11-20T11:27:11;5.10;99.90
19483;DHT22;9882;51.166;6.992;2022-11-20T11:29:44;5.10;99.90
19483;DHT22;9882;51.166;6.992;2022-11-20T11:32:15;5.20;99.90
19483;DHT22;9882;51.166;6.992;2022-11-20T11:34:44;5.20;99.90
19483;DHT22;9882;51.166;6.992;2022-11-20T11:37:16;5.30;99.90
19483;DHT22;9882;51.166;6.992;2022-11-20T11:39:46;5.30;99.90
19483;DHT22;9882;51.166;6.992;2022-11-20T11:42:21;5.20;99.90
19483;DHT22;9882;51.166;6.992;2022-11-20T11:44:52;5.10;99.90
19483;DHT22;9882;51.166;6.992;2022-11-20T11:47:37;5.30;99.90
19483;DHT22;9882;51.166;6.992;2022-11-20T11:50:15;5.20;99.90
19483;DHT22;9882;51.166;6.992;2022-11-20T11:52:48;5.30;99.90
19483;DHT22;9882;51.166;6.992;2022-11-20T11:55:27;5.30;99.90
19483;DHT22;9882;51.166;6.992;2022-11-20T11:58:06;5.30;99.90
19483;DHT22;9882;51.166;6.992;2022-11-20T12:00:45;5.30;99.90
19483;DHT22;9882;51.166;6.992;2022-11-20T12:03:21;5.40;99.90
19483;DHT22;9882;51.166;6.992;2022-11-20T12:05:55;5.30;99.90
19483;DHT22;9882;51.166;6.992;2022-11-20T12:08:30;5.40;99.90
19483;DHT22;9882;51.166;6.992;2022-11-20T12:11:04;5.30;99.90
19483;DHT22;9882;51.166;6.992;2022-11-20T12:13:42;5.40;99.90
19483;DHT22;9882;51.166;6.992;2022-11-20T12:16:15;5.40;99.90
19483;DHT22;9882;51.166;6.992;2022-11-20T12:18:48;5.40;99.90
19483;DHT22;9882;51.166;6.992;2022-11-20T12:21:26;5.50;99.90
19483;DHT22;9882;51.166;6.992;2022-11-20T12:24:06;5.70;99.90
19483;DHT22;9882;51.166;6.992;2022-11-20T12:26:48;5.50;99.90
19483;DHT22;9882;51.166;6.992;2022-11-20T12:29:25;5.50;99.90
19483;DHT22;9882;51.166;6.992;2022-11-20T12:32:06;5.60;99.90
19483;DHT22;9882;51.166;6.992;2022-11-20T12:34:51;5.50;99.90
19483;DHT22;9882;51.166;6.992;2022-11-20T12:37:33;5.60;99.90
19483;DHT22;9882;51.166;6.992;2022-11-20T12:40:23;5.60;99.90
19483;DHT22;9882;51.166;6.992;2022-11-20T12:43:05;5.60;99.90
19483;DHT22;9882;51.166;6.992;2022-11-20T12:46:11;5.60;99.90
19483;DHT22;9882;51.166;6.992;2022-11-20T12:48:52;5.60;99.90
19483;DHT22;9882;51.166;6.992;2022-11-20T12:51:52;5.60;99.90
19483;DHT22;9882;51.166;6.992;2022-11-20T12:57:38;5.70;99.90
19483;DHT22;9882;51.166;6.992;2022-11-20T13:00:15;5.70;99.90
19483;DHT22;9882;51.166;6.992;2022-11-20T13:03:04;5.70;99.90
19483;DHT22;9882;51.166;6.992;2022-11-20T13:05:46;5.70;99.90
19483;DHT22;9882;51.166;6.992;2022-11-20T13:08:21;5.70;99.90
19483;DHT22;9882;51.166;6.992;2022-11-20T13:10:56;5.70;99.90
19483;DHT22;9882;51.166;6.992;2022-11-20T13:13:32;5.60;99.90
19483;DHT22;9882;51.166;6.992;2022-11-20T13:16:06;5.70;99.90
19483;DHT22;9882;51.166;6.992;2022-11-20T13:18:38;5.70;99.90
19483;DHT22;9882;51.166;6.992;2022-11-20T13:21:15;5.70;99.90
19483;DHT22;9882;51.166;6.992;2022-11-20T13:23:44;5.70;99.90
19483;DHT22;9882;51.166;6.992;2022-11-20T13:26:18;5.60;99.90
19483;DHT22;9882;51.166;6.992;2022-11-20T13:28:58;5.70;99.90
19483;DHT22;9882;51.166;6.992;2022-11-20T13:31:31;5.60;99.90
19483;DHT22;9882;51.166;6.992;2022-11-20T13:34:02;5.60;99.90
19483;DHT22;9882;51.166;6.992;2022-11-20T13:36:32;5.70;99.90
19483;DHT22;9882;51.166;6.992;2022-11-20T13:39:03;5.70;99.90
19483;DHT22;9882;51.166;6.992;2022-11-20T13:41:33;5.70;99.90
19483;DHT22;9882;51.166;6.992;2022-11-20T13:44:10;5.80;99.90
19483;DHT22;9882;51.166;6.992;2022-11-20T13:46:43;5.80;99.90
19483;DHT22;9882;51.166;6.992;2022-11-20T13:49:18;5.70;99.90
19483;DHT22;9882;51.166;6.992;2022-11-20T13:51:49;5.80;99.90
19483;DHT22;9882;51.166;6.992;2022-11-20T13:54:48;5.80;99.90
19483;DHT22;9882;51.166;6.992;2022-11-20T13:57:41;5.90;99.90
19483;DHT22;9882;51.166;6.992;2022-11-20T14:00:15;5.90;99.90
19483;DHT22;9882;51.166;6.992;2022-11-20T14:02:48;5.80;99.90
19483;DHT22;9882;51.166;6.992;2022-11-20T14:05:22;5.90;99.90
19483;DHT22;9882;51.166;6.992;2022-11-20T14:07:53;5.90;99.90
19483;DHT22;9882;51.166;6.992;2022-11-20T14:10:24;5.90;99.90
19483;DHT22;9882;51.166;6.992;2022-11-20T14:12:56;5.90;99.90
19483;DHT22;9882;51.166;6.992;2022-11-20T14:15:27;6.00;99.90
19483;DHT22;9882;51.166;6.992;2022-11-20T14:17:56;5.90;99.90
19483;DHT22;9882;51.166;6.992;2022-11-20T14:20:27;5.90;99.90
19483;DHT22;9882;51.166;6.992;2022-11-20T14:22:58;5.90;99.90
19483;DHT22;9882;51.166;6.992;2022-11-20T14:25:26;5.90;99.90
19483;DHT22;9882;51.166;6.992;2022-11-20T14:27:57;5.90;99.90
19483;DHT22;9882;51.166;6.992;2022-11-20T14:30:27;5.90;99.90
19483;DHT22;9882;51.166;6.992;2022-11-20T14:33:01;5.90;99.90
19483;DHT22;9882;51.166;6.992;2022-11-20T14:35:33;6.00;99.90
19483;DHT22;9882;51.166;6.992;2022-11-20T14:38:04;6.00;99.90
19483;DHT22;9882;51.166;6.992;2022-11-20T14:40:36;5.90;99.90
19483;DHT22;9882;51.166;6.992;2022-11-20T14:43:18;5.90;99.90
19483;DHT22;9882;51.166;6.992;2022-11-20T14:45:55;5.90;99.90
19483;DHT22;9882;51.166;6.992;2022-11-20T14:48:29;5.90;99.90
19483;DHT22;9882;51.166;6.992;2022-11-20T14:50:59;6.10;99.90
19483;DHT22;9882;51.166;6.992;2022-11-20T14:53:29;6.00;99.90
19483;DHT22;9882;51.166;6.992;2022-11-20T14:55:59;5.90;99.90
19483;DHT22;9882;51.166;6.992;2022-11-20T14:58:29;6.00;99.90
19483;DHT22;9882;51.166;6.992;2022-11-20T15:01:00;6.00;99.90
19483;DHT22;9882;51.166;6.992;2022-11-20T15:03:33;6.00;99.90
19483;DHT22;9882;51.166;6.992;2022-11-20T15:06:02;6.00;99.90
19483;DHT22;9882;51.166;6.992;2022-11-20T15:08:33;6.00;99.90
19483;DHT22;9882;51.166;6.992;2022-11-20T15:11:02;6.00;99.90
19483;DHT22;9882;51.166;6.992;2022-11-20T15:13:33;5.90;99.90
19483;DHT22;9882;51.166;6.992;2022-11-20T15:16:13;6.00;99.90
19483;DHT22;9882;51.166;6.992;2022-11-20T15:18:47;5.90;99.90
19483;DHT22;9882;51.166;6.992;2022-11-20T15:21:18;5.80;99.90
19483;DHT22;9882;51.166;6.992;2022-11-20T15:23:51;5.90;99.90
19483;DHT22;9882;51.166;6.992;2022-11-20T15:26:28;6.00;99.90
19483;DHT22;9882;51.166;6.992;2022-11-20T15:29:01;5.90;99.90
19483;DHT22;9882;51.166;6.992;2022-11-20T15:31:38;6.00;99.90
19483;DHT22;9882;51.166;6.992;2022-11-20T15:34:20;6.00;99.90
19483;DHT22;9882;51.166;6.992;2022-11-20T15:40:15;5.90;99.90
19483;DHT22;9882;51.166;6.992;2022-11-20T15:42:44;5.90;99.90
19483;DHT22;9882;51.166;6.992;2022-11-20T15:45:28;5.80;99.90
19483;DHT22;9882;51.166;6.992;2022-11-20T15:47:57;5.70;99.90
19483;DHT22;9882;51.166;6.992;2022-11-20T15:50:30;5.70;99.90
19483;DHT22;9882;51.166;6.992;2022-11-20T15:53:01;5.80;99.90
19483;DHT22;9882;51.166;6.992;2022-11-20T17:04:24;6.00;99.90
19483;DHT22;9882;51.166;6.992;2022-11-20T17:22:35;6.00;99.90
19483;DHT22;9882;51.166;6.992;2022-11-20T17:41:12;6.00;99.90
19483;DHT22;9882;51.166;6.992;2022-11-20T17:52:07;5.90;99.90
19483;DHT22;9882;51.166;6.992;2022-11-20T17:54:35;5.90;99.90
19483;DHT22;9882;51.166;6.992;2022-11-20T17:57:10;6.00;99.90
19483;DHT22;9882;51.166;6.992;2022-11-20T18:00:01;5.90;99.90
19483;DHT22;9882;51.166;6.992;2022-11-20T18:02:31;5.90;99.90
19483;DHT22;9882;51.166;6.992;2022-11-20T18:05:04;6.00;99.90
19483;DHT22;9882;51.166;6.992;2022-11-20T18:07:38;5.90;99.90
19483;DHT22;9882;51.166;6.992;2022-11-20T18:10:12;6.00;99.90
19483;DHT22;9882;51.166;6.992;2022-11-20T18:13:01;6.10;99.90
19483;DHT22;9882;51.166;6.992;2022-11-20T18:15:34;6.00;99.90
19483;DHT22;9882;51.166;6.992;2022-11-20T18:18:03;6.00;99.90
19483;DHT22;9882;51.166;6.992;2022-11-20T18:20:34;6.00;99.90
19483;DHT22;9882;51.166;6.992;2022-11-20T18:23:06;6.00;99.90
19483;DHT22;9882;51.166;6.992;2022-11-20T18:59:58;6.20;99.90
19483;DHT22;9882;51.166;6.992;2022-11-20T19:02:37;6.20;99.90
19483;DHT22;9882;51.166;6.992;2022-11-20T19:26:34;6.50;99.90
19483;DHT22;9882;51.166;6.992;2022-11-20T19:43:12;6.50;99.90
19483;DHT22;9882;51.166;6.992;2022-11-20T19:50:48;6.70;99.90
19483;DHT22;9882;51.166;6.992;2022-11-20T20:19:52;7.10;99.90
19483;DHT22;9882;51.166;6.992;2022-11-20T20:22:20;7.20;99.90
19483;DHT22;9882;51.166;6.992;2022-11-20T20:24:49;7.30;99.90
19483;DHT22;9882;51.166;6.992;2022-11-20T20:27:18;7.30;99.90
19483;DHT22;9882;51.166;6.992;2022-11-20T20:29:46;7.30;99.90
19483;DHT22;9882;51.166;6.992;2022-11-20T20:32:15;7.40;99.90
19483;DHT22;9882;51.166;6.992;2022-11-20T20:34:43;7.40;99.90
19483;DHT22;9882;51.166;6.992;2022-11-20T20:37:15;7.30;99.90
19483;DHT22;9882;51.166;6.992;2022-11-20T20:39:46;7.30;99.90